Aérodrome :
LOGIN :

S'inscrire | Disclaimer

   EN    FR    IT 

 










Légende :    VFR   VFR Marginal   IFR   IFR Intensif   IFR Très Intensif
Visi : 
Plafond : 
>= 8 km
>= 3000ft
5 à 8 km
1000 à 3000 ft
1500m à 5 km
500 à 1000 ft
800 à 1500m
200 à 500 ft
< 800m
< 200 ft
Symboles :   Orages  Brouillard  Fortes neiges  Fortes précipitations  Vent > 20 kt
SIGMETs :   Divers  Orages  Givrage  Turbulence  Onde Orograph.  Cendres Volcan.






- Altitude de l'aérodrome : 102 ft
- Code IATA : EXT


EGTE - Exeter

DERNIER METAR :
  • 301150Z 33008KT 9999 FEW035 08/03 Q1029

METARs EXPIRÉS :
  • 301120Z 32006KT 280V360 9999 FEW035 08/03 Q1029
  • 301050Z 31006KT 9999 FEW035 08/03 Q1029
  • 301020Z 28004KT 9999 FEW035 07/03 Q1029
  • 300950Z 28004KT 250V320 9999 FEW035 07/03 Q1028
  • 300920Z 27004KT 9999 FEW035 06/02 Q1028

TAF TAF EGTE
Valide du 30 à 12h jusqu'au 30 à 21h UTC


301054Z 3012/3021 32007KT 9999 SCT025



MET'MAP, la Météo Aéronautique d'un coup d'oeil ! - Copyright ORBIFLY Décembre 2007 - Disclaimer

ORBIFLY MET'MAP TEAM :

Programmation & Développement : Alexandra Zaïnal
Sur une idée originale de : Baudouin d'Aumeries
Soutien technique & logistique : Manuel Goepfert
Assistance : Marc-Olivier Méhu




SOURCES & CREDITS :

   NOAA